THUNDERSTORM

Not for real navigation. The accuracy of this data is not assured See disclaimer for more information



ICAO NAME COUNTRY WIND Kt GUST Kt VIS m TEMP/DEW C BARO METAR
PADQ KODIAK AIRPORT AK United States 12 0 3200 10/9 29.38 PADQ 181213Z AUTO 11012KT 2 0.5SM -RA BR OVC009 10/09 A2938 RMK AO2 P0001 T01000089 TS
KMBL Manistee, Manistee County-Blac MI United States 4 0 3200 21/20 29.91 KMBL 181241Z AUTO 28004KT 2 0.5SM +TSRA BR FEW004 BKN023 OVC034 21/20 A2991 RMK AO2 VIS 1 3/4V5 TSB0
KSBM SHEBOYGAN CO MEMORIAL AIRPORT WI United States 5 0 4800 22/21 29.91 KSBM 181242Z AUTO 16005KT 3SM RA BR BKN017 BKN033 22/21 A2991 RMK AO2 P0018 T02170211 TS
PAWD Seward AK United States 19 40 4800 13/11 29.70 PAWD 181217Z AUTO 18019G40KT 3SM RA BR BKN041 OVC050 13/11 A2970 RMK AO2 PK WND 17040/1208 P0013 T01
KSBM SHEBOYGAN CO MEMORIAL AIRPORT WI United States 5 0 4800 22/21 29.91 KSBM 181242Z AUTO 16005KT 3SM RA BR BKN017 BKN033 22/21 A2991 RMK AO2 P0018 T02170211 TS

Show more